createdAt,value
2023-05-21T00:00:33.326Z,26.00
2023-05-21T00:03:21.334Z,23.10
2023-05-21T00:05:50.370Z,22.40
2023-05-21T00:08:18.321Z,25.10
2023-05-21T00:10:46.002Z,25.50
2023-05-21T00:13:13.649Z,23.30
2023-05-21T00:15:41.450Z,25.50
2023-05-21T00:18:09.168Z,29.00
2023-05-21T00:20:37.370Z,22.20
2023-05-21T00:23:05.531Z,24.50
2023-05-21T00:25:33.330Z,23.80
2023-05-21T00:28:01.475Z,23.50
2023-05-21T00:30:29.161Z,26.70
2023-05-21T00:32:59.085Z,25.30
2023-05-21T00:35:26.903Z,24.20
2023-05-21T00:37:54.560Z,24.40
2023-05-21T00:40:22.435Z,24.10
2023-05-21T00:42:50.129Z,26.90
2023-05-21T00:45:17.860Z,23.00
2023-05-21T00:47:46.018Z,27.70
2023-05-21T00:50:15.344Z,21.70
2023-05-21T00:52:43.165Z,22.40
2023-05-21T00:55:11.203Z,23.50
2023-05-21T00:57:38.874Z,21.60
2023-05-21T01:00:10.925Z,20.70
2023-05-21T01:02:41.494Z,22.40
2023-05-21T01:05:09.388Z,20.10
2023-05-21T01:07:37.052Z,22.80
2023-05-21T01:10:04.809Z,19.20
2023-05-21T01:12:32.589Z,22.50
2023-05-21T01:15:00.233Z,19.30
2023-05-21T01:17:27.881Z,19.20
2023-05-21T01:19:55.614Z,17.10
2023-05-21T01:22:25.206Z,20.40
2023-05-21T01:24:53.242Z,18.60
2023-05-21T01:27:21.218Z,20.50
2023-05-21T01:29:48.879Z,19.50
2023-05-21T01:32:16.559Z,18.10
2023-05-21T01:34:44.235Z,20.20
2023-05-21T01:37:11.902Z,17.60
2023-05-21T01:39:39.570Z,18.90
2023-05-21T01:42:07.285Z,18.50
2023-05-21T01:44:34.944Z,17.20
2023-05-21T01:47:02.585Z,16.60
2023-05-21T01:49:30.242Z,17.90
2023-05-21T01:51:57.886Z,17.50
2023-05-21T01:54:25.557Z,17.20
2023-05-21T01:56:53.255Z,18.30
2023-05-21T01:59:20.954Z,17.20
2023-05-21T02:01:48.651Z,17.60
2023-05-21T02:04:16.365Z,19.70
2023-05-21T02:06:44.647Z,18.50
2023-05-21T02:09:12.325Z,22.30
2023-05-21T02:11:40.149Z,19.20
2023-05-21T02:14:10.578Z,16.40
2023-05-21T02:16:38.627Z,17.60
2023-05-21T02:19:07.116Z,15.20
2023-05-21T02:21:34.995Z,19.10
2023-05-21T02:24:02.732Z,16.10
2023-05-21T02:26:30.524Z,17.20
2023-05-21T02:28:58.492Z,16.80
2023-05-21T02:31:26.374Z,17.50
2023-05-21T02:33:54.200Z,17.30
2023-05-21T02:36:22.094Z,15.90
2023-05-21T02:38:50.268Z,16.50
2023-05-21T02:41:18.042Z,15.70
2023-05-21T02:43:45.795Z,15.20
2023-05-21T02:46:13.724Z,18.70
2023-05-21T02:48:41.640Z,17.20
2023-05-21T02:51:09.393Z,15.60
2023-05-21T02:53:37.163Z,14.00
2023-05-21T02:56:05.129Z,19.70
2023-05-21T02:58:33.713Z,13.90
2023-05-21T03:01:01.944Z,14.60
2023-05-21T03:03:29.969Z,14.70
2023-05-21T03:05:58.945Z,15.10
2023-05-21T03:08:26.858Z,12.80
2023-05-21T03:10:55.391Z,16.60
2023-05-21T03:13:23.419Z,14.70
2023-05-21T03:15:51.436Z,14.70
2023-05-21T03:18:19.200Z,15.40
2023-05-21T03:20:46.912Z,13.10
2023-05-21T03:23:16.561Z,14.00
2023-05-21T03:25:46.313Z,20.00
2023-05-21T03:28:14.171Z,21.90
2023-05-21T03:30:42.324Z,18.20
2023-05-21T03:33:11.462Z,18.10
2023-05-21T03:35:39.390Z,15.60
2023-05-21T03:38:07.157Z,16.10
2023-05-21T03:40:35.021Z,17.50
2023-05-21T03:43:02.782Z,15.90
2023-05-21T03:45:30.757Z,13.10
2023-05-21T03:47:58.778Z,11.50
2023-05-21T03:50:26.706Z,12.50
2023-05-21T03:52:54.562Z,12.60
2023-05-21T03:55:22.324Z,10.60
2023-05-21T03:57:50.195Z,10.00
2023-05-21T04:00:18.157Z,13.60
2023-05-21T04:02:46.089Z,10.50
2023-05-21T04:05:14.097Z,11.70
2023-05-21T04:07:43.191Z,12.40
2023-05-21T04:10:11.069Z,13.10
2023-05-21T04:12:38.925Z,11.40
2023-05-21T04:15:06.792Z,12.90
2023-05-21T04:17:35.705Z,9.50
2023-05-21T04:20:04.268Z,9.80
2023-05-21T04:22:32.143Z,11.90
2023-05-21T04:25:00.004Z,11.70
2023-05-21T04:27:27.867Z,11.00
2023-05-21T04:29:55.629Z,10.50
2023-05-21T04:32:23.531Z,8.70
2023-05-21T04:34:51.375Z,9.50
2023-05-21T04:37:19.227Z,8.30
2023-05-21T04:39:47.199Z,8.90
2023-05-21T04:42:14.964Z,7.70
2023-05-21T04:44:44.860Z,10.60
2023-05-21T04:47:15.199Z,8.60
2023-05-21T04:49:42.970Z,10.00
2023-05-21T04:52:10.803Z,9.60
2023-05-21T04:54:39.234Z,9.20
2023-05-21T04:57:07.199Z,9.30
2023-05-21T04:59:34.947Z,11.60
2023-05-21T05:02:03.026Z,9.10
2023-05-21T05:04:30.986Z,9.70
2023-05-21T05:06:58.774Z,9.50
2023-05-21T05:09:26.621Z,8.90
2023-05-21T05:11:54.268Z,7.30
2023-05-21T05:14:22.045Z,9.90
2023-05-21T05:16:49.859Z,7.80
2023-05-21T05:19:17.763Z,8.90
2023-05-21T05:21:45.951Z,9.80
2023-05-21T05:24:13.717Z,10.10
2023-05-21T05:26:41.481Z,7.40
2023-05-21T05:29:09.246Z,7.70
2023-05-21T05:31:37.010Z,8.80
2023-05-21T05:34:04.774Z,7.00
2023-05-21T05:36:32.540Z,9.30
2023-05-21T05:39:00.306Z,7.80
2023-05-21T05:41:28.064Z,8.30
2023-05-21T05:43:55.931Z,7.10
2023-05-21T05:46:23.786Z,12.40
2023-05-21T05:48:51.767Z,7.30
2023-05-21T05:51:19.652Z,7.50
2023-05-21T05:53:47.599Z,8.00
2023-05-21T05:56:17.424Z,7.90
2023-05-21T05:58:45.287Z,11.30
2023-05-21T06:01:13.768Z,10.00
2023-05-21T06:03:41.668Z,14.80
2023-05-21T06:06:09.662Z,7.10
2023-05-21T06:08:38.498Z,7.70
2023-05-21T06:11:06.454Z,7.20
2023-05-21T06:13:34.336Z,7.50
2023-05-21T06:16:02.106Z,6.20
2023-05-21T06:18:29.956Z,8.90
2023-05-21T06:20:58.027Z,7.60
2023-05-21T06:23:25.994Z,9.70
2023-05-21T06:25:53.762Z,6.20
2023-05-21T06:28:21.520Z,8.40
2023-05-21T06:30:49.313Z,7.00
2023-05-21T06:33:17.253Z,5.50
2023-05-21T06:35:45.126Z,8.60
2023-05-21T06:38:12.936Z,7.40
2023-05-21T06:40:40.755Z,7.40
2023-05-21T06:43:08.519Z,7.80
2023-05-21T06:45:37.073Z,8.40
2023-05-21T06:48:05.107Z,6.20
2023-05-21T06:50:32.941Z,6.20
2023-05-21T06:53:00.955Z,9.60
2023-05-21T06:55:28.777Z,5.30
2023-05-21T06:57:56.641Z,7.50
2023-05-21T07:00:24.443Z,6.80
2023-05-21T07:02:52.377Z,6.90
2023-05-21T07:05:20.443Z,7.80
2023-05-21T07:07:48.214Z,7.70
2023-05-21T07:10:15.982Z,6.90
2023-05-21T07:12:43.741Z,6.70
2023-05-21T07:15:11.501Z,9.60
2023-05-21T07:17:39.496Z,7.00
2023-05-21T07:20:08.051Z,5.90
2023-05-21T07:22:35.731Z,9.70
2023-05-21T07:25:03.599Z,5.80
2023-05-21T07:27:31.246Z,7.10
2023-05-21T07:29:58.962Z,5.80
2023-05-21T07:32:29.370Z,8.80
2023-05-21T07:34:57.209Z,7.90
2023-05-21T07:37:25.809Z,5.50
2023-05-21T07:39:53.645Z,5.90
2023-05-21T07:42:21.413Z,7.90
2023-05-21T07:44:49.176Z,13.80
2023-05-21T07:47:16.990Z,9.00
2023-05-21T07:49:44.820Z,7.50
2023-05-21T07:52:12.487Z,6.20
2023-05-21T07:54:40.442Z,8.00
2023-05-21T07:57:08.276Z,6.90
2023-05-21T07:59:35.962Z,6.50
2023-05-21T08:02:03.617Z,7.30
2023-05-21T08:04:31.676Z,6.80
2023-05-21T08:06:59.413Z,7.10
2023-05-21T08:09:27.260Z,6.60
2023-05-21T08:11:54.932Z,6.70
2023-05-21T08:14:22.593Z,6.60
2023-05-21T08:16:50.556Z,9.70
2023-05-21T08:19:18.447Z,10.20
2023-05-21T08:21:46.569Z,7.60
2023-05-21T08:24:14.332Z,7.10
2023-05-21T08:26:42.110Z,6.20
2023-05-21T08:29:09.970Z,6.10
2023-05-21T08:31:37.851Z,7.40
2023-05-21T08:34:05.693Z,5.20
2023-05-21T08:36:33.459Z,6.70
2023-05-21T08:39:01.432Z,6.20
2023-05-21T08:41:29.192Z,6.00
2023-05-21T08:43:57.981Z,6.80
2023-05-21T08:46:26.007Z,4.70
2023-05-21T08:48:57.295Z,7.80
2023-05-21T08:51:25.009Z,5.50
2023-05-21T08:53:52.826Z,5.80
2023-05-21T08:56:20.584Z,7.40
2023-05-21T08:58:48.477Z,6.50
2023-05-21T09:01:19.602Z,4.80
2023-05-21T09:03:47.683Z,6.00
2023-05-21T09:06:15.433Z,8.00
2023-05-21T09:08:43.211Z,7.60
2023-05-21T09:11:11.016Z,5.30
2023-05-21T09:13:39.209Z,5.60
2023-05-21T09:16:07.006Z,7.40
2023-05-21T09:18:34.762Z,4.60
2023-05-21T09:21:02.528Z,5.70
2023-05-21T09:23:30.396Z,4.70
2023-05-21T09:25:58.160Z,4.20
2023-05-21T09:28:25.924Z,5.80
2023-05-21T09:30:54.468Z,5.10
2023-05-21T09:33:23.212Z,5.40
2023-05-21T09:35:50.878Z,6.80
2023-05-21T09:38:18.543Z,4.90
2023-05-21T09:40:49.135Z,8.20
2023-05-21T09:43:16.820Z,4.80
2023-05-21T09:45:44.622Z,6.70
2023-05-21T09:48:12.853Z,6.00
2023-05-21T09:50:40.531Z,5.10
2023-05-21T09:53:08.184Z,4.70
2023-05-21T09:55:35.821Z,4.90
2023-05-21T09:58:04.865Z,5.10
2023-05-21T10:00:32.564Z,4.60
2023-05-21T10:03:00.291Z,3.70
2023-05-21T10:05:31.413Z,7.10
2023-05-21T10:07:59.290Z,7.00
2023-05-21T10:10:27.034Z,8.10
2023-05-21T10:12:54.808Z,6.30
2023-05-21T10:15:22.557Z,5.00
2023-05-21T10:17:50.844Z,7.70
2023-05-21T10:20:19.134Z,7.10
2023-05-21T10:22:46.887Z,7.70
2023-05-21T10:25:14.741Z,4.50
2023-05-21T10:27:42.508Z,4.80
2023-05-21T10:30:10.476Z,6.70
2023-05-21T10:32:38.481Z,7.00
2023-05-21T10:35:06.933Z,5.10
2023-05-21T10:37:34.743Z,5.90
2023-05-21T10:40:02.982Z,4.00
2023-05-21T10:42:30.670Z,6.20
2023-05-21T10:44:58.498Z,5.30
2023-05-21T10:47:27.153Z,7.30
2023-05-21T10:49:54.882Z,5.00
2023-05-21T10:52:22.550Z,4.70
2023-05-21T10:54:50.371Z,3.70
2023-05-21T10:57:18.143Z,3.50
2023-05-21T10:59:46.116Z,2.90
2023-05-21T11:02:13.847Z,5.80
2023-05-21T11:04:43.491Z,5.90
2023-05-21T11:07:11.195Z,4.90
2023-05-21T11:09:38.874Z,6.00
2023-05-21T11:12:08.525Z,5.00
2023-05-21T11:14:36.760Z,2.50
2023-05-21T11:17:04.812Z,3.70
2023-05-21T11:19:34.315Z,5.40
2023-05-21T11:22:02.180Z,5.90
2023-05-21T11:24:29.849Z,5.50
2023-05-21T11:26:58.791Z,6.50
2023-05-21T11:29:29.985Z,5.60
2023-05-21T11:32:04.441Z,5.30
2023-05-21T11:34:40.959Z,4.10
2023-05-21T11:37:09.815Z,4.00
2023-05-21T11:39:40.542Z,5.10
2023-05-21T11:42:08.412Z,3.40
2023-05-21T11:44:36.153Z,6.60
2023-05-21T11:47:04.042Z,6.90
2023-05-21T11:49:31.909Z,9.00
2023-05-21T11:52:00.390Z,5.70
2023-05-21T11:54:29.689Z,3.20
2023-05-21T11:56:57.456Z,3.30
2023-05-21T11:59:25.173Z,4.90
2023-05-21T12:01:52.982Z,7.30
2023-05-21T12:04:21.059Z,4.60
2023-05-21T12:06:50.798Z,4.30
2023-05-21T12:09:18.506Z,3.30
2023-05-21T12:11:46.520Z,4.10
2023-05-21T12:14:14.295Z,4.00
2023-05-21T12:16:42.294Z,5.20
2023-05-21T12:19:10.108Z,5.10
2023-05-21T12:21:37.812Z,3.60
2023-05-21T12:24:05.544Z,4.70
2023-05-21T12:26:33.342Z,4.50
2023-05-21T12:29:01.170Z,4.50
2023-05-21T12:31:28.883Z,5.30
2023-05-21T12:33:56.578Z,4.80
2023-05-21T12:36:24.267Z,5.40
2023-05-21T12:38:52.240Z,3.20
2023-05-21T12:41:19.925Z,3.70
2023-05-21T12:43:47.571Z,6.00
2023-05-21T12:46:17.414Z,4.80
2023-05-21T12:48:45.234Z,4.90
2023-05-21T12:51:12.930Z,4.30
2023-05-21T12:53:40.622Z,5.10
2023-05-21T12:56:08.263Z,8.50
2023-05-21T12:58:38.422Z,6.30
2023-05-21T13:01:06.261Z,5.20
2023-05-21T13:03:33.988Z,4.30
2023-05-21T13:06:01.690Z,6.20
2023-05-21T13:08:29.608Z,5.00
2023-05-21T13:10:57.641Z,4.90
2023-05-21T13:13:25.532Z,3.00
2023-05-21T13:15:53.377Z,3.60
2023-05-21T13:18:21.223Z,5.30
2023-05-21T13:20:49.024Z,5.70
2023-05-21T13:23:16.757Z,5.40
2023-05-21T13:25:44.506Z,6.70
2023-05-21T13:28:15.208Z,4.10
2023-05-21T13:30:43.006Z,4.20
2023-05-21T13:33:11.838Z,8.40
2023-05-21T13:35:39.706Z,4.70
2023-05-21T13:38:07.404Z,7.20
2023-05-21T13:40:37.328Z,5.40
2023-05-21T13:45:34.272Z,5.00
2023-05-21T13:48:01.999Z,6.90
2023-05-21T13:50:29.722Z,3.90
2023-05-21T13:52:57.393Z,4.10
2023-05-21T13:55:25.069Z,4.00
2023-05-21T13:57:52.815Z,3.10
2023-05-21T14:00:20.521Z,3.10
2023-05-21T14:02:48.346Z,5.60
2023-05-21T14:05:16.299Z,4.10
2023-05-21T14:07:43.973Z,3.90
2023-05-21T14:10:12.041Z,3.50
2023-05-21T14:12:41.057Z,3.40
2023-05-21T14:15:09.156Z,3.90
2023-05-21T14:17:36.950Z,4.90
2023-05-21T14:20:05.072Z,3.00
2023-05-21T14:22:32.959Z,2.90
2023-05-21T14:25:01.127Z,5.10
2023-05-21T14:27:28.887Z,4.10
2023-05-21T14:29:56.756Z,5.40
2023-05-21T14:32:24.793Z,2.60
2023-05-21T14:34:52.798Z,2.80
2023-05-21T14:37:20.562Z,2.80
2023-05-21T14:39:48.536Z,5.70
2023-05-21T14:42:16.294Z,5.20
2023-05-21T14:44:44.056Z,5.30
2023-05-21T14:47:11.931Z,6.00
2023-05-21T14:49:39.791Z,6.70
2023-05-21T14:52:07.968Z,5.00
2023-05-21T14:54:36.554Z,3.50
2023-05-21T14:57:04.426Z,3.30
2023-05-21T14:59:32.278Z,3.30
2023-05-21T15:02:00.142Z,4.60
2023-05-21T15:04:28.220Z,4.00
2023-05-21T15:06:56.080Z,2.80
2023-05-21T15:09:23.845Z,3.70
2023-05-21T15:11:53.756Z,3.20
2023-05-21T15:14:21.728Z,2.60
2023-05-21T15:16:49.524Z,3.10
2023-05-21T15:19:17.622Z,3.40
2023-05-21T15:21:45.544Z,3.30
2023-05-21T15:24:13.609Z,4.50
2023-05-21T15:26:41.884Z,3.30
2023-05-21T15:29:09.544Z,3.10
2023-05-21T15:31:37.440Z,3.00
2023-05-21T15:34:05.481Z,3.60
2023-05-21T15:36:33.352Z,7.80
2023-05-21T15:39:03.923Z,4.70
2023-05-21T15:41:31.748Z,2.60
2023-05-21T15:43:59.460Z,3.20
2023-05-21T15:46:27.288Z,2.70
2023-05-21T15:48:55.149Z,3.00
2023-05-21T15:51:23.007Z,4.00
2023-05-21T15:53:50.877Z,5.60
2023-05-21T15:56:18.951Z,4.60
2023-05-21T15:58:46.936Z,3.30
2023-05-21T16:01:14.936Z,2.80
2023-05-21T16:03:42.890Z,3.20
2023-05-21T16:06:10.926Z,5.10
2023-05-21T16:08:38.692Z,5.40
2023-05-21T16:11:06.676Z,5.20
2023-05-21T16:13:34.428Z,4.00
2023-05-21T16:16:02.191Z,4.30
2023-05-21T16:18:30.059Z,5.40
2023-05-21T16:20:57.838Z,5.40
2023-05-21T16:23:26.103Z,6.40
2023-05-21T16:25:53.966Z,3.70
2023-05-21T16:28:24.550Z,4.60
2023-05-21T16:30:52.237Z,7.90
2023-05-21T16:33:19.958Z,4.60
2023-05-21T16:35:47.612Z,4.70
2023-05-21T16:38:15.510Z,5.10
2023-05-21T16:40:43.213Z,5.00
2023-05-21T16:43:10.934Z,2.70
2023-05-21T16:45:38.782Z,3.20
2023-05-21T16:48:06.813Z,6.60
2023-05-21T16:50:34.623Z,5.20
2023-05-21T16:53:06.834Z,4.30
2023-05-21T16:55:34.694Z,4.60
2023-05-21T16:58:02.746Z,4.00
2023-05-21T17:00:30.883Z,3.80
2023-05-21T17:02:58.733Z,4.10
2023-05-21T17:05:26.645Z,6.90
2023-05-21T17:07:55.385Z,4.10
2023-05-21T17:10:23.039Z,7.70
2023-05-21T17:12:51.056Z,5.60
2023-05-21T17:15:18.767Z,4.10
2023-05-21T17:17:46.537Z,3.60
2023-05-21T17:20:14.617Z,4.50
2023-05-21T17:22:42.363Z,3.60
2023-05-21T17:25:10.071Z,5.20
2023-05-21T17:27:38.047Z,5.20
2023-05-21T17:30:05.883Z,3.90
2023-05-21T17:32:33.768Z,4.40
2023-05-21T17:35:01.460Z,5.20
2023-05-21T17:37:29.241Z,4.70
2023-05-21T17:39:57.969Z,6.00
2023-05-21T17:42:25.738Z,3.40
2023-05-21T17:44:53.445Z,5.50
2023-05-21T17:47:21.240Z,5.80
2023-05-21T17:49:48.905Z,5.10
2023-05-21T17:52:16.631Z,5.20
2023-05-21T17:54:44.308Z,3.80
2023-05-21T17:57:12.314Z,6.80
2023-05-21T17:59:45.188Z,6.90
2023-05-21T18:02:13.049Z,4.90
2023-05-21T18:04:41.119Z,4.70
2023-05-21T18:07:08.945Z,5.40
2023-05-21T18:09:36.853Z,7.10
2023-05-21T18:12:05.953Z,4.80
2023-05-21T18:14:34.228Z,5.70
2023-05-21T18:17:02.044Z,7.70
2023-05-21T18:19:32.406Z,8.10
2023-05-21T18:22:00.164Z,5.10
2023-05-21T18:24:27.945Z,9.10
2023-05-21T18:26:56.463Z,8.10
2023-05-21T18:29:24.279Z,8.70
2023-05-21T18:31:52.046Z,10.50
2023-05-21T18:34:19.892Z,8.60
2023-05-21T18:36:48.371Z,11.10
2023-05-21T18:39:16.143Z,7.70
2023-05-21T18:41:43.822Z,5.80
2023-05-21T18:44:11.480Z,5.40
2023-05-21T18:46:39.724Z,5.00
2023-05-21T18:49:07.562Z,5.40
2023-05-21T18:51:35.240Z,6.60
2023-05-21T18:54:03.073Z,7.00
2023-05-21T18:56:31.037Z,6.90
2023-05-21T18:58:58.764Z,6.90
2023-05-21T19:01:26.549Z,8.20
2023-05-21T19:03:54.274Z,11.40
2023-05-21T19:06:25.821Z,11.70
2023-05-21T19:11:23.656Z,10.10
2023-05-21T19:13:51.615Z,9.40
2023-05-21T19:16:19.451Z,11.80
2023-05-21T19:18:47.191Z,12.40
2023-05-21T19:21:14.891Z,10.50
2023-05-21T19:23:52.569Z,12.80
2023-05-21T19:26:22.523Z,11.50
2023-05-21T19:28:54.689Z,11.00
2023-05-21T19:31:22.793Z,10.50
2023-05-21T19:33:50.994Z,8.50
2023-05-21T19:36:19.119Z,9.30
2023-05-21T19:38:48.420Z,7.50
2023-05-21T19:41:16.299Z,9.10
2023-05-21T19:43:44.004Z,6.20
2023-05-21T19:46:11.807Z,9.10
2023-05-21T19:48:39.666Z,8.30
2023-05-21T19:51:07.466Z,8.20
2023-05-21T19:53:35.453Z,7.50
2023-05-21T19:56:03.312Z,7.60
2023-05-21T19:58:31.685Z,10.50
2023-05-21T20:00:59.591Z,7.30
2023-05-21T20:03:28.187Z,8.60
2023-05-21T20:05:56.096Z,7.00
2023-05-21T20:08:24.028Z,8.20
2023-05-21T20:10:52.208Z,10.80
2023-05-21T20:13:19.993Z,10.70
2023-05-21T20:15:50.565Z,6.90
2023-05-21T20:18:20.331Z,8.60
2023-05-21T20:20:47.990Z,14.50
2023-05-21T20:23:15.782Z,10.10
2023-05-21T20:25:43.581Z,7.80
2023-05-21T20:28:11.243Z,8.00
2023-05-21T20:30:39.108Z,9.90
2023-05-21T20:33:07.063Z,12.80
2023-05-21T20:35:34.996Z,9.90
2023-05-21T20:38:02.779Z,10.00
2023-05-21T20:40:30.450Z,12.00
2023-05-21T20:42:58.918Z,11.00
2023-05-21T20:45:29.740Z,9.00
2023-05-21T20:47:57.967Z,10.40
2023-05-21T20:50:26.087Z,7.20
2023-05-21T20:52:53.912Z,10.10
2023-05-21T20:55:21.621Z,6.80
2023-05-21T20:57:49.267Z,7.40
2023-05-21T21:00:17.261Z,6.40
2023-05-21T21:02:45.260Z,5.50
2023-05-21T21:05:13.371Z,6.80
2023-05-21T21:07:42.165Z,6.90
2023-05-21T21:10:09.930Z,5.60
2023-05-21T21:12:37.636Z,7.90
2023-05-21T21:15:05.614Z,6.20
2023-05-21T21:17:33.554Z,6.30
2023-05-21T21:20:01.398Z,5.70
2023-05-21T21:22:29.164Z,5.50
2023-05-21T21:24:57.027Z,5.90
2023-05-21T21:27:24.790Z,5.90
2023-05-21T21:29:52.555Z,8.40
2023-05-21T21:32:20.421Z,8.50
2023-05-21T21:34:48.286Z,7.30
2023-05-21T21:37:16.458Z,8.20
2023-05-21T21:39:44.330Z,5.70
2023-05-21T21:42:12.096Z,8.50
2023-05-21T21:44:39.857Z,9.80
2023-05-21T21:47:07.638Z,11.50
2023-05-21T21:49:35.594Z,10.70
2023-05-21T21:52:03.413Z,9.90
2023-05-21T21:54:31.074Z,10.50
2023-05-21T21:56:58.888Z,9.20
2023-05-21T21:59:26.649Z,9.70
2023-05-21T22:01:57.460Z,10.30
2023-05-21T22:04:25.269Z,8.50
2023-05-21T22:06:53.854Z,8.90
2023-05-21T22:09:22.780Z,7.80
2023-05-21T22:11:50.959Z,8.20
2023-05-21T22:14:19.579Z,5.50
2023-05-21T22:16:53.442Z,6.60
2023-05-21T22:19:22.278Z,5.90
2023-05-21T22:21:50.364Z,6.70
2023-05-21T22:24:30.893Z,8.90
2023-05-21T22:26:59.613Z,6.90
2023-05-21T22:29:27.485Z,6.20
2023-05-21T22:31:55.245Z,6.30
2023-05-21T22:34:25.549Z,6.60
2023-05-21T22:36:53.323Z,6.40
2023-05-21T22:39:21.106Z,6.10
2023-05-21T22:41:48.959Z,5.60
2023-05-21T22:44:16.724Z,5.80
2023-05-21T22:46:44.637Z,8.00
2023-05-21T22:49:12.454Z,6.00
2023-05-21T22:51:45.060Z,6.30
2023-05-21T22:54:12.921Z,5.40
2023-05-21T22:56:40.969Z,6.30
2023-05-21T22:59:08.734Z,6.30
2023-05-21T23:01:38.367Z,6.20
2023-05-21T23:04:06.415Z,7.30
2023-05-21T23:06:34.175Z,6.80
2023-05-21T23:09:01.941Z,3.60
2023-05-21T23:11:29.707Z,9.60
2023-05-21T23:13:57.465Z,7.80
2023-05-21T23:16:25.739Z,5.70
2023-05-21T23:18:54.675Z,5.50
2023-05-21T23:21:22.529Z,5.40
2023-05-21T23:23:50.372Z,6.20
2023-05-21T23:26:18.235Z,5.30
2023-05-21T23:28:46.005Z,5.80
2023-05-21T23:31:13.754Z,6.90
2023-05-21T23:33:41.731Z,7.70
2023-05-21T23:36:09.492Z,6.60
2023-05-21T23:38:37.262Z,6.10
2023-05-21T23:41:05.038Z,5.90
2023-05-21T23:43:32.791Z,6.00
2023-05-21T23:46:00.628Z,6.60
2023-05-21T23:48:28.474Z,7.80
2023-05-21T23:50:56.285Z,6.30
2023-05-21T23:53:24.051Z,5.30
2023-05-21T23:55:51.754Z,8.40
2023-05-21T23:58:19.399Z,8.50
